createdAt,value
2017-11-26T05:07:30.934Z,14.70
2017-11-26T05:09:58.402Z,17.27
2017-11-26T05:12:26.734Z,16.43
2017-11-26T05:14:54.201Z,14.73
2017-11-26T05:17:21.666Z,16.90
2017-11-26T05:19:49.161Z,16.70
2017-11-26T05:22:17.515Z,14.63
2017-11-26T05:24:45.007Z,15.70
2017-11-26T05:27:12.482Z,17.17
2017-11-26T05:29:39.951Z,16.07
2017-11-26T05:32:07.440Z,16.90
2017-11-26T05:34:34.906Z,18.37
2017-11-26T05:37:02.390Z,16.13
2017-11-26T05:39:29.853Z,16.80
2017-11-26T05:41:57.325Z,16.63
2017-11-26T05:44:24.810Z,15.43
2017-11-26T05:46:52.278Z,17.33
2017-11-26T05:49:19.742Z,16.90
2017-11-26T05:51:47.226Z,15.60
2017-11-26T05:54:14.692Z,14.43
2017-11-26T05:56:42.188Z,12.00
2017-11-26T05:59:09.674Z,13.43
2017-11-26T06:01:37.142Z,13.43
2017-11-26T06:04:04.614Z,11.63
2017-11-26T06:06:32.111Z,12.83
2017-11-26T06:08:59.586Z,12.67
2017-11-26T06:11:27.059Z,11.67
2017-11-26T06:13:54.545Z,11.60
2017-11-26T06:16:22.013Z,11.50
2017-11-26T06:18:49.505Z,12.70
2017-11-26T06:21:16.971Z,11.33
2017-11-26T06:23:44.451Z,11.60
2017-11-26T06:26:11.945Z,10.30
2017-11-26T06:28:39.412Z,11.23
2017-11-26T06:31:06.878Z,11.50
2017-11-26T06:33:34.362Z,10.57
2017-11-26T06:36:01.826Z,11.10
2017-11-26T06:38:29.304Z,10.73
2017-11-26T06:40:56.792Z,9.80
2017-11-26T06:43:24.261Z,10.33
2017-11-26T06:45:51.733Z,10.23
2017-11-26T06:48:19.218Z,11.13
2017-11-26T06:50:46.686Z,10.87
2017-11-26T06:53:14.154Z,11.30
2017-11-26T06:55:41.638Z,10.63
2017-11-26T06:58:09.107Z,10.90
2017-11-26T07:00:36.599Z,11.67
2017-11-26T07:03:04.099Z,10.27
2017-11-26T07:05:31.553Z,11.10
2017-11-26T07:07:59.041Z,11.13
2017-11-26T07:10:26.513Z,11.00
2017-11-26T07:12:53.982Z,10.97
2017-11-26T07:15:21.818Z,10.87
2017-11-26T07:17:49.286Z,11.30
2017-11-26T07:20:16.756Z,11.27
2017-11-26T07:22:44.241Z,10.60
2017-11-26T07:25:11.706Z,10.73
2017-11-26T07:27:39.166Z,9.83
2017-11-26T07:30:06.653Z,10.63
2017-11-26T07:32:34.119Z,10.27
2017-11-26T07:35:01.625Z,10.03
2017-11-26T07:37:29.551Z,10.67
2017-11-26T07:39:57.035Z,10.13
2017-11-26T07:42:24.523Z,9.27
2017-11-26T07:44:51.994Z,8.93
2017-11-26T07:47:19.479Z,8.37
2017-11-26T07:49:46.946Z,8.83
2017-11-26T07:52:14.478Z,8.40
2017-11-26T07:54:41.959Z,9.07
2017-11-26T07:57:09.426Z,9.20
2017-11-26T07:59:36.914Z,8.70
2017-11-26T08:02:04.375Z,9.03
2017-11-26T08:04:31.835Z,8.63
2017-11-26T08:06:59.322Z,7.37
2017-11-26T08:09:26.794Z,10.90
2017-11-26T08:11:54.266Z,7.63
2017-11-26T08:14:21.746Z,8.20
2017-11-26T08:16:49.206Z,7.93
2017-11-26T08:19:16.732Z,8.20
2017-11-26T08:21:44.205Z,7.47
2017-11-26T08:24:11.670Z,7.70
2017-11-26T08:26:39.143Z,7.47
2017-11-26T08:29:06.640Z,8.57
2017-11-26T08:31:34.109Z,7.47
2017-11-26T08:34:01.571Z,8.00
2017-11-26T08:36:29.050Z,6.93
2017-11-26T08:38:56.520Z,7.33
2017-11-26T08:41:23.986Z,7.03
2017-11-26T08:43:51.475Z,7.43
2017-11-26T08:46:18.944Z,8.00
2017-11-26T08:48:46.413Z,8.10
2017-11-26T08:51:13.892Z,8.80
2017-11-26T08:53:41.350Z,7.70
2017-11-26T08:56:08.839Z,7.40
2017-11-26T08:58:36.303Z,7.73
2017-11-26T09:01:03.775Z,8.00
2017-11-26T09:03:31.248Z,7.60
2017-11-26T09:05:58.723Z,7.20
2017-11-26T09:08:26.686Z,7.87
2017-11-26T09:10:54.174Z,8.00
2017-11-26T09:13:21.638Z,7.27
2017-11-26T09:15:49.102Z,8.97
2017-11-26T09:18:16.627Z,10.77
2017-11-26T09:20:44.089Z,9.53
2017-11-26T09:23:11.553Z,8.30
2017-11-26T09:25:39.038Z,9.37
2017-11-26T09:28:06.494Z,9.00
2017-11-26T09:30:33.975Z,8.63
2017-11-26T09:33:01.454Z,8.13
2017-11-26T09:35:28.928Z,9.10
2017-11-26T09:37:56.410Z,9.40
2017-11-26T09:40:23.870Z,9.50
2017-11-26T09:42:51.335Z,9.90
2017-11-26T09:45:18.815Z,9.47
2017-11-26T09:47:46.286Z,8.40
2017-11-26T09:50:13.746Z,8.07
2017-11-26T09:52:41.221Z,8.27
2017-11-26T09:55:08.689Z,9.73
2017-11-26T09:57:36.205Z,8.03
2017-11-26T10:00:03.672Z,7.33
2017-11-26T10:02:32.115Z,6.90
2017-11-26T10:04:59.594Z,7.43
2017-11-26T10:07:27.053Z,7.90
2017-11-26T10:09:54.523Z,7.83
2017-11-26T10:12:22.071Z,7.23
2017-11-26T10:14:49.529Z,7.37
2017-11-26T10:17:17.010Z,7.00
2017-11-26T10:19:44.475Z,7.40
2017-11-26T10:22:11.934Z,7.20
2017-11-26T10:24:39.414Z,7.97
2017-11-26T10:27:06.879Z,7.23
2017-11-26T10:29:34.350Z,7.67
2017-11-26T10:32:01.835Z,7.67
2017-11-26T10:34:29.295Z,7.30
2017-11-26T10:36:56.772Z,8.40
2017-11-26T10:39:24.258Z,8.20
2017-11-26T10:41:51.722Z,8.13
2017-11-26T10:44:19.178Z,8.40
2017-11-26T10:46:46.770Z,7.77
2017-11-26T10:49:14.229Z,7.80
2017-11-26T10:51:41.690Z,7.20
2017-11-26T10:54:09.167Z,8.03
2017-11-26T10:56:36.635Z,7.90
2017-11-26T10:59:04.090Z,8.70
2017-11-26T11:01:31.577Z,10.23
2017-11-26T11:03:59.038Z,7.43
2017-11-26T11:06:26.501Z,8.07
2017-11-26T11:08:53.979Z,8.70
2017-11-26T11:11:21.439Z,7.30
2017-11-26T11:13:49.060Z,7.53
2017-11-26T11:16:16.525Z,7.37
2017-11-26T11:18:43.987Z,8.43
2017-11-26T11:21:11.474Z,7.73
2017-11-26T11:23:38.934Z,8.30
2017-11-26T11:26:06.395Z,8.43
2017-11-26T11:28:33.870Z,8.63
2017-11-26T11:31:01.334Z,7.47
2017-11-26T11:33:28.794Z,6.20
2017-11-26T11:35:56.271Z,6.13
2017-11-26T11:38:23.734Z,5.53
2017-11-26T11:40:51.191Z,6.10
2017-11-26T11:43:18.697Z,6.30
2017-11-26T11:45:46.157Z,6.37
2017-11-26T11:48:13.660Z,6.53
2017-11-26T11:50:41.133Z,6.60
2017-11-26T11:53:08.597Z,6.03
2017-11-26T11:55:36.053Z,5.87
2017-11-26T11:58:03.535Z,6.17
2017-11-26T12:00:31.054Z,6.67
2017-11-26T12:02:58.514Z,5.33
2017-11-26T12:05:25.990Z,5.50
2017-11-26T12:07:53.449Z,5.20
2017-11-26T12:10:20.926Z,6.60
2017-11-26T12:12:48.393Z,5.70
2017-11-26T12:15:15.850Z,6.87
2017-11-26T12:17:43.329Z,6.50
2017-11-26T12:20:10.789Z,7.33
2017-11-26T12:22:38.387Z,6.97
2017-11-26T12:25:05.853Z,8.03
2017-11-26T12:27:33.317Z,8.30
2017-11-26T12:30:00.794Z,7.57
2017-11-26T12:32:28.256Z,7.93
2017-11-26T12:34:55.710Z,7.63
2017-11-26T12:37:23.192Z,6.93
2017-11-26T12:39:50.653Z,7.40
2017-11-26T12:42:18.132Z,8.13
2017-11-26T12:44:45.600Z,7.17
2017-11-26T12:47:13.080Z,7.40
2017-11-26T12:53:19.859Z,8.30
2017-11-26T12:55:47.414Z,8.17
2017-11-26T12:58:14.913Z,8.90
2017-11-26T13:00:42.535Z,8.27
2017-11-26T13:03:10.522Z,8.27
2017-11-26T13:05:38.012Z,8.70
2017-11-26T13:08:05.747Z,9.50
2017-11-26T13:10:33.220Z,8.50
2017-11-26T13:13:00.982Z,8.53
2017-11-26T13:15:28.731Z,8.70
2017-11-26T13:17:56.210Z,9.00
2017-11-26T13:20:23.873Z,8.73
2017-11-26T13:22:51.470Z,8.13
2017-11-26T13:25:18.939Z,7.93
2017-11-26T13:27:46.428Z,8.33
2017-11-26T13:30:13.939Z,8.00
2017-11-26T13:32:41.448Z,7.83
2017-11-26T13:35:09.078Z,7.97
2017-11-26T13:37:36.590Z,8.30
2017-11-26T13:40:04.071Z,7.20
2017-11-26T13:42:31.574Z,7.70
2017-11-26T13:44:59.068Z,6.90
2017-11-26T13:47:26.542Z,7.30
2017-11-26T13:49:54.351Z,6.97
2017-11-26T13:52:21.844Z,7.47
2017-11-26T13:54:49.316Z,8.07
2017-11-26T13:57:16.812Z,7.23
2017-11-26T13:59:44.490Z,6.90
2017-11-26T14:02:12.208Z,7.20
2017-11-26T14:04:39.746Z,6.53
2017-11-26T14:07:07.380Z,7.93
2017-11-26T14:09:35.367Z,7.50
2017-11-26T14:12:02.850Z,7.53
2017-11-26T14:14:30.328Z,6.70
2017-11-26T14:16:58.219Z,8.13
2017-11-26T14:19:25.686Z,7.30
2017-11-26T14:21:53.157Z,7.53
2017-11-26T14:24:20.640Z,7.20
2017-11-26T14:26:48.126Z,7.10
2017-11-26T14:29:15.914Z,7.10
2017-11-26T14:31:43.379Z,7.67
2017-11-26T14:34:10.861Z,7.77
2017-11-26T14:36:38.359Z,7.77
2017-11-26T14:39:05.828Z,7.17
2017-11-26T14:41:33.312Z,8.23
2017-11-26T14:44:00.803Z,7.93
2017-11-26T14:46:28.284Z,7.50
2017-11-26T14:48:55.860Z,8.47
2017-11-26T14:51:23.639Z,8.33
2017-11-26T14:53:51.116Z,7.63
2017-11-26T14:56:18.612Z,8.50
2017-11-26T14:58:46.078Z,7.30
2017-11-26T15:01:13.562Z,8.37
2017-11-26T15:03:41.072Z,7.97
2017-11-26T15:06:08.539Z,7.77
2017-11-26T15:08:36.030Z,7.23
2017-11-26T15:11:03.507Z,11.77
2017-11-26T15:13:31.125Z,7.80
2017-11-26T15:15:58.628Z,9.23
2017-11-26T15:18:26.236Z,8.47
2017-11-26T15:20:53.727Z,8.97
2017-11-26T15:23:21.251Z,7.73
2017-11-26T15:25:48.727Z,9.27
2017-11-26T15:28:16.206Z,7.83
2017-11-26T15:30:43.835Z,8.50
2017-11-26T15:33:11.328Z,7.97
2017-11-26T15:35:38.791Z,8.30
2017-11-26T15:38:06.267Z,9.00
2017-11-26T15:40:33.925Z,13.73
2017-11-26T15:43:01.410Z,35.40
2017-11-26T15:45:29.001Z,9.97
2017-11-26T15:47:56.990Z,9.57
2017-11-26T15:50:24.483Z,9.83
2017-11-26T15:52:52.046Z,9.40
2017-11-26T15:55:19.531Z,9.00
2017-11-26T15:57:47.024Z,9.33
2017-11-26T16:00:23.564Z,8.63
2017-11-26T16:02:51.456Z,8.40
2017-11-26T16:05:18.927Z,8.17
2017-11-26T16:07:46.402Z,8.17
2017-11-26T16:10:13.899Z,26.20
2017-11-26T16:12:41.691Z,9.47
2017-11-26T16:15:09.459Z,10.47
2017-11-26T16:17:36.933Z,9.23
2017-11-26T16:20:04.403Z,9.87
2017-11-26T16:22:31.907Z,8.80
2017-11-26T16:24:59.378Z,9.60
2017-11-26T16:27:26.875Z,9.63
2017-11-26T16:29:54.352Z,9.47
2017-11-26T16:32:21.819Z,9.57
2017-11-26T16:34:49.308Z,9.07
2017-11-26T16:37:16.775Z,8.83
2017-11-26T16:39:44.263Z,8.87
2017-11-26T16:42:11.742Z,8.10
2017-11-26T16:44:39.216Z,9.00
2017-11-26T16:47:06.710Z,8.63
2017-11-26T16:49:34.468Z,8.87
2017-11-26T16:52:01.964Z,10.33
2017-11-26T16:54:29.451Z,10.07
2017-11-26T16:56:56.932Z,10.00
2017-11-26T16:59:24.432Z,10.13
2017-11-26T17:01:51.911Z,10.13
2017-11-26T17:04:19.387Z,10.90
2017-11-26T17:06:47.176Z,9.47
2017-11-26T17:09:14.647Z,9.60
2017-11-26T17:11:42.143Z,10.43
2017-11-26T17:14:09.851Z,9.67
2017-11-26T17:16:37.323Z,10.63
2017-11-26T17:19:04.820Z,11.63
2017-11-26T17:21:32.300Z,11.53
2017-11-26T17:24:00.092Z,10.10
2017-11-26T17:26:27.579Z,9.50
2017-11-26T17:28:55.062Z,11.13
2017-11-26T17:31:22.882Z,10.90
2017-11-26T17:33:50.363Z,9.73
2017-11-26T17:36:17.863Z,11.23
2017-11-26T17:38:45.362Z,10.77
2017-11-26T17:41:12.834Z,11.13
2017-11-26T17:43:40.339Z,12.17
2017-11-26T17:46:07.823Z,10.57
2017-11-26T17:48:35.343Z,10.93
2017-11-26T17:51:02.831Z,12.13
2017-11-26T17:53:30.311Z,12.83
2017-11-26T17:55:57.816Z,15.03
2017-11-26T17:58:25.300Z,14.13
2017-11-26T18:00:53.067Z,12.07
2017-11-26T18:03:20.559Z,12.43
2017-11-26T18:05:48.287Z,14.50
2017-11-26T18:08:16.051Z,14.40
2017-11-26T18:10:43.544Z,12.40
2017-11-26T18:13:11.275Z,12.67
2017-11-26T18:15:38.775Z,12.03
2017-11-26T18:18:06.260Z,13.57
2017-11-26T18:20:33.743Z,14.40
2017-11-26T18:23:01.249Z,11.20
2017-11-26T18:25:29.067Z,11.10
2017-11-26T18:27:56.579Z,11.30
2017-11-26T18:30:24.115Z,11.90
2017-11-26T18:32:51.595Z,10.13
2017-11-26T18:35:19.108Z,10.77
2017-11-26T18:37:46.599Z,10.63
2017-11-26T18:40:14.318Z,11.00
2017-11-26T18:42:41.822Z,10.90
2017-11-26T18:45:09.300Z,9.87
2017-11-26T18:47:36.771Z,10.77
2017-11-26T18:50:04.271Z,10.63
2017-11-26T18:52:31.748Z,11.17
2017-11-26T18:54:59.224Z,12.77
2017-11-26T18:57:26.723Z,12.83
2017-11-26T18:59:54.211Z,12.60
2017-11-26T19:02:21.700Z,11.50
2017-11-26T19:04:49.497Z,9.60
2017-11-26T19:07:16.979Z,10.03
2017-11-26T19:09:44.473Z,9.63
2017-11-26T19:12:11.976Z,10.60
2017-11-26T19:14:39.455Z,9.90
2017-11-26T19:17:06.969Z,10.57
2017-11-26T19:19:34.440Z,9.50
2017-11-26T19:22:01.925Z,9.60
2017-11-26T19:24:29.407Z,10.53
2017-11-26T19:26:56.891Z,10.60
2017-11-26T19:29:24.435Z,12.20
2017-11-26T19:31:51.918Z,10.97
2017-11-26T19:34:19.710Z,11.20
2017-11-26T19:36:47.199Z,10.97
2017-11-26T19:39:14.687Z,11.10
2017-11-26T19:41:42.182Z,10.20
2017-11-26T19:44:09.940Z,10.53
2017-11-26T19:46:37.812Z,10.93
2017-11-26T19:49:05.774Z,9.93
2017-11-26T19:51:33.540Z,9.60
2017-11-26T19:54:01.059Z,10.10
2017-11-26T19:56:28.557Z,10.63
2017-11-26T19:58:58.569Z,10.40
2017-11-26T20:01:26.060Z,10.50
2017-11-26T20:03:53.655Z,11.27
2017-11-26T20:06:21.451Z,11.60
2017-11-26T20:08:48.932Z,11.03
2017-11-26T20:11:16.430Z,10.97
2017-11-26T20:13:44.867Z,10.30
2017-11-26T20:16:12.371Z,10.30
2017-11-26T20:18:40.167Z,10.60
2017-11-26T20:21:07.660Z,10.33
2017-11-26T20:23:35.143Z,10.40
2017-11-26T20:26:02.641Z,10.00
2017-11-26T20:28:30.223Z,11.70
2017-11-26T20:30:57.727Z,11.87
2017-11-26T20:33:25.223Z,12.97
2017-11-26T20:35:52.901Z,10.83
2017-11-26T20:38:20.379Z,9.73
2017-11-26T20:40:47.888Z,10.30
2017-11-26T20:43:15.368Z,10.83
2017-11-26T20:45:42.852Z,11.20
2017-11-26T20:48:10.387Z,10.10
2017-11-26T20:50:37.946Z,10.43
2017-11-26T20:53:05.462Z,10.67
2017-11-26T20:55:32.952Z,11.80
2017-11-26T20:58:00.706Z,10.33
2017-11-26T21:00:28.473Z,9.90
2017-11-26T21:02:56.241Z,12.83
2017-11-26T21:05:23.726Z,11.43
2017-11-26T21:07:51.554Z,10.33
2017-11-26T21:10:19.320Z,11.60
2017-11-26T21:12:46.795Z,11.43
2017-11-26T21:15:14.546Z,10.50
2017-11-26T21:17:42.027Z,10.80
2017-11-26T21:20:09.507Z,10.90
2017-11-26T21:22:37.015Z,10.20
2017-11-26T21:25:04.497Z,12.20
2017-11-26T21:27:31.975Z,9.57
2017-11-26T21:29:59.479Z,10.30
2017-11-26T21:32:26.960Z,10.63
2017-11-26T21:34:54.442Z,10.37
2017-11-26T21:37:21.945Z,10.47
2017-11-26T21:39:49.445Z,9.70
2017-11-26T21:42:16.940Z,10.73
2017-11-26T21:44:44.435Z,9.73
2017-11-26T21:47:11.911Z,9.77
2017-11-26T21:49:39.411Z,10.43
2017-11-26T21:52:07.212Z,9.33
2017-11-26T21:54:34.690Z,10.37
2017-11-26T21:57:02.197Z,11.50
2017-11-26T21:59:29.676Z,9.87
2017-11-26T22:01:57.481Z,10.33
2017-11-26T22:04:24.975Z,9.90
2017-11-26T22:06:52.456Z,10.10
2017-11-26T22:09:20.227Z,10.67
2017-11-26T22:11:47.807Z,9.90
2017-11-26T22:14:15.284Z,10.23
2017-11-26T22:16:43.112Z,10.90
2017-11-26T22:19:10.595Z,9.93
2017-11-26T22:21:38.097Z,10.13
2017-11-26T22:24:05.591Z,11.30
2017-11-26T22:26:33.136Z,10.10
2017-11-26T22:29:00.626Z,9.93
2017-11-26T22:31:28.107Z,10.17
2017-11-26T22:33:55.620Z,10.20
2017-11-26T22:36:23.108Z,9.60
2017-11-26T22:38:50.587Z,10.60
2017-11-26T22:41:18.079Z,9.77
2017-11-26T22:43:45.556Z,10.30
2017-11-26T22:46:13.052Z,10.23
2017-11-26T22:48:40.523Z,9.57
2017-11-26T22:51:08.002Z,10.77
2017-11-26T22:53:35.508Z,10.27
2017-11-26T22:56:03.009Z,10.27
2017-11-26T22:58:30.507Z,9.87
2017-11-26T23:00:57.979Z,9.50
2017-11-26T23:03:25.455Z,10.00
2017-11-26T23:05:52.954Z,10.00
2017-11-26T23:08:20.426Z,9.40
2017-11-26T23:10:47.921Z,9.73
2017-11-26T23:13:15.415Z,9.30
2017-11-26T23:15:42.895Z,10.67
2017-11-26T23:18:10.389Z,9.93
2017-11-26T23:20:37.862Z,10.00
2017-11-26T23:23:05.375Z,10.73
2017-11-26T23:25:32.880Z,10.47
2017-11-26T23:28:00.360Z,10.27
2017-11-26T23:30:27.867Z,10.33
2017-11-26T23:32:55.334Z,9.93
2017-11-26T23:35:22.844Z,10.57
2017-11-26T23:37:50.318Z,10.17
2017-11-26T23:40:17.810Z,11.30
2017-11-26T23:42:45.306Z,11.17
2017-11-26T23:45:12.783Z,11.30
2017-11-26T23:47:40.280Z,10.53
2017-11-26T23:50:07.824Z,11.40
2017-11-26T23:52:35.304Z,11.60
2017-11-26T23:55:02.794Z,10.93
2017-11-26T23:57:30.571Z,10.23
2017-11-26T23:59:58.339Z,10.30
